createdAt,value
2022-08-14T00:04:32.436Z,21.73
2022-08-14T00:10:50.647Z,21.69
2022-08-14T00:17:08.231Z,21.66
2022-08-14T00:23:28.138Z,21.62
2022-08-14T00:29:51.239Z,21.57
2022-08-14T00:36:37.789Z,21.49
2022-08-14T00:42:53.063Z,21.42
2022-08-14T00:48:54.233Z,21.37
2022-08-14T00:55:17.182Z,21.35
2022-08-14T01:01:37.403Z,21.31
2022-08-14T01:08:00.186Z,21.27
2022-08-14T01:14:26.095Z,21.25
2022-08-14T01:20:43.314Z,21.2
2022-08-14T01:27:03.171Z,21.08
2022-08-14T01:33:26.242Z,20.94
2022-08-14T01:39:46.166Z,20.84
2022-08-14T01:46:10.430Z,20.78
2022-08-14T01:52:33.891Z,20.79
2022-08-14T01:58:57.682Z,20.8
2022-08-14T02:05:12.278Z,20.8
2022-08-14T02:11:35.221Z,20.74
2022-08-14T02:17:55.137Z,20.69
2022-08-14T02:24:38.641Z,20.62
2022-08-14T02:30:38.656Z,20.53
2022-08-14T02:37:03.259Z,20.39
2022-08-14T02:43:22.499Z,20.21
2022-08-14T02:49:44.173Z,20.13
2022-08-14T02:56:04.793Z,20.02
2022-08-14T03:02:33.664Z,19.9
2022-08-14T03:08:47.182Z,19.78
2022-08-14T03:32:11.086Z,19.64
2022-08-14T03:39:10.132Z,19.62
2022-08-14T03:45:18.407Z,19.61
2022-08-14T03:51:17.196Z,19.61
2022-08-14T03:57:37.514Z,19.59
2022-08-14T04:04:00.178Z,19.57
2022-08-14T04:10:26.215Z,19.56
2022-08-14T04:16:43.151Z,19.48
2022-08-14T04:23:03.179Z,19.46
2022-08-14T04:29:26.148Z,19.45
2022-08-14T04:35:53.557Z,19.4
2022-08-14T04:42:12.222Z,19.38
2022-08-14T04:48:31.708Z,19.43
2022-08-14T04:54:52.190Z,19.42
2022-08-14T05:01:12.632Z,19.37
2022-08-14T05:07:46.766Z,19.36
2022-08-14T05:14:17.460Z,19.38
2022-08-14T05:21:05.276Z,19.37
2022-08-14T05:26:38.182Z,19.43
2022-08-14T05:33:01.162Z,19.48
2022-08-14T05:39:21.170Z,19.55
2022-08-14T05:45:44.169Z,19.66
2022-08-14T05:52:04.153Z,19.83
2022-08-14T05:58:34.013Z,20.02
2022-08-14T06:04:47.219Z,20.22
2022-08-14T06:11:10.174Z,20.44
2022-08-14T06:17:30.314Z,20.66
2022-08-14T06:23:55.220Z,20.89
2022-08-14T06:30:15.273Z,21.12
2022-08-14T06:36:38.180Z,21.36
2022-08-14T06:42:59.972Z,21.59
2022-08-14T06:49:21.390Z,21.81
2022-08-14T06:55:41.226Z,22.03
2022-08-14T07:02:04.211Z,22.29
2022-08-14T07:08:24.174Z,22.56
2022-08-14T07:14:47.175Z,22.78
2022-08-14T07:21:07.212Z,23.04
2022-08-14T07:27:33.514Z,23.33
2022-08-14T07:33:51.075Z,23.59
2022-08-14T07:40:13.168Z,23.83
2022-08-14T07:46:33.185Z,24.11
2022-08-14T07:52:56.149Z,24.39
2022-08-14T07:59:16.244Z,24.63
2022-08-14T08:05:39.150Z,24.89
2022-08-14T08:11:59.146Z,25.16
2022-08-14T08:18:27.853Z,25.46
2022-08-14T08:24:42.147Z,25.78
2022-08-14T08:31:05.183Z,26.14
2022-08-14T08:37:25.391Z,26.39
2022-08-14T08:43:48.143Z,26.7
2022-08-14T08:50:22.893Z,27.04
2022-08-14T09:14:10.625Z,28.05
2022-08-14T09:20:30.748Z,28.45
2022-08-14T09:26:53.141Z,28.75
2022-08-14T09:33:13.255Z,29.07
2022-08-14T09:39:36.178Z,29.37
2022-08-14T09:45:56.190Z,29.69
2022-08-14T09:52:23.843Z,29.91
2022-08-14T09:58:39.167Z,30.18
2022-08-14T10:05:02.168Z,30.42
2022-08-14T10:11:23.293Z,30.69
2022-08-14T10:17:46.277Z,30.97
2022-08-14T10:24:05.149Z,31.23
2022-08-14T10:30:28.148Z,31.56
2022-08-14T10:36:48.249Z,31.72
2022-08-14T10:43:11.150Z,31.82
2022-08-14T10:49:31.170Z,31.93
2022-08-14T10:55:54.140Z,32.03
2022-08-14T11:02:14.140Z,32.38
2022-08-14T11:08:37.157Z,32.48
2022-08-14T11:14:59.069Z,32.62
2022-08-14T11:21:21.287Z,33.1
2022-08-14T11:27:40.136Z,33.72
2022-08-14T11:34:03.141Z,34.04
2022-08-14T11:40:24.382Z,34.3
2022-08-14T11:46:46.143Z,34.76
2022-08-14T11:53:06.734Z,35.18
2022-08-14T11:59:32.732Z,35.5
2022-08-14T12:05:49.146Z,35.37
2022-08-14T12:12:12.152Z,35.31
2022-08-14T12:18:32.140Z,35.51
2022-08-14T12:24:55.181Z,35.82
2022-08-14T12:31:15.145Z,35.92
2022-08-14T12:37:38.155Z,35.29
2022-08-14T12:43:59.620Z,35.02
2022-08-14T12:50:21.147Z,35.57
2022-08-14T12:56:41.172Z,35.94
2022-08-14T13:03:04.136Z,36.19
2022-08-14T13:09:24.178Z,36.58
2022-08-14T13:15:47.174Z,36.92
2022-08-14T13:22:09.541Z,37.11
2022-08-14T13:28:33.477Z,37.16
2022-08-14T13:34:52.497Z,37.38
2022-08-14T13:41:13.149Z,37.41
2022-08-14T13:47:33.391Z,37.25
2022-08-14T13:54:08.675Z,37.08
2022-08-14T14:00:17.929Z,37.33
2022-08-14T14:06:39.145Z,37.38
2022-08-14T14:12:59.261Z,37.49
2022-08-14T14:19:22.179Z,36.9
2022-08-14T14:25:45.959Z,36.61
2022-08-14T14:32:05.174Z,36.65
2022-08-14T14:38:27.628Z,36.86
2022-08-14T14:44:48.150Z,36.73
2022-08-14T14:51:08.172Z,36.63
2022-08-14T14:57:34.703Z,36.46
2022-08-14T15:03:52.297Z,36.37
2022-08-14T15:20:00.672Z,36.27
2022-08-14T15:26:23.626Z,36.14
2022-08-14T15:32:43.181Z,35.95
2022-08-14T15:39:03.140Z,35.62
2022-08-14T15:45:26.149Z,35.39
2022-08-14T15:51:46.176Z,35.12
2022-08-14T15:58:12.759Z,34.91
2022-08-14T16:04:29.177Z,34.77
2022-08-14T16:10:52.381Z,34.48
2022-08-14T16:17:12.142Z,34.12
2022-08-14T16:23:36.040Z,33.8
2022-08-14T16:29:55.178Z,33.66
2022-08-14T16:36:26.588Z,33.7
2022-08-14T16:43:03.673Z,33.57
2022-08-14T16:49:01.406Z,33.33
2022-08-14T16:55:21.170Z,33.06
2022-08-14T17:01:44.203Z,32.88
2022-08-14T17:08:07.249Z,32.57
2022-08-14T17:14:27.168Z,32.18
2022-08-14T17:20:54.859Z,31.97
2022-08-14T17:27:10.539Z,31.9
2022-08-14T17:33:30.139Z,31.81
2022-08-14T17:39:53.257Z,31.68
2022-08-14T17:46:15.900Z,31.49
2022-08-14T17:52:40.705Z,31.31
2022-08-14T17:58:56.172Z,31.19
2022-08-14T18:05:23.088Z,31.04
2022-08-14T18:11:43.571Z,30.77
2022-08-14T18:18:02.167Z,30.47
2022-08-14T18:24:28.632Z,30.17
2022-08-14T18:30:58.051Z,29.84
2022-08-14T18:37:16.608Z,29.47
2022-08-14T18:43:28.146Z,29.09
2022-08-14T18:49:48.156Z,28.75
2022-08-14T18:56:11.143Z,28.49
2022-08-14T19:02:31.357Z,28.25
2022-08-14T19:08:54.138Z,27.99
2022-08-14T19:15:14.131Z,27.7
2022-08-14T19:21:37.160Z,27.44
2022-08-14T19:27:57.127Z,27.16
2022-08-14T19:34:29.484Z,26.9
2022-08-14T19:40:40.158Z,26.66
2022-08-14T19:47:04.040Z,26.4
2022-08-14T19:53:23.159Z,26.21
2022-08-14T19:59:57.120Z,26.06
2022-08-14T20:06:06.176Z,25.93
2022-08-14T20:12:35.098Z,25.76
2022-08-14T20:18:50.709Z,25.55
2022-08-14T20:25:12.171Z,25.36
2022-08-14T20:31:36.763Z,25.18
2022-08-14T20:38:00.142Z,25.02
2022-08-14T20:44:15.154Z,24.84
2022-08-14T20:50:44.017Z,24.66
2022-08-14T20:56:58.175Z,24.49
2022-08-14T21:03:21.128Z,24.35
2022-08-14T21:19:46.071Z,24.13
2022-08-14T21:26:06.122Z,24.05
2022-08-14T21:32:29.190Z,23.97
2022-08-14T21:38:49.180Z,23.82
2022-08-14T21:45:12.144Z,23.66
2022-08-14T21:51:52.595Z,23.58
2022-08-14T21:57:56.938Z,23.52
2022-08-14T22:20:53.333Z,23.06
2022-08-14T22:27:12.135Z,23.03
2022-08-14T22:33:35.171Z,23.02
2022-08-14T22:40:16.803Z,22.94
2022-08-14T22:46:20.526Z,22.83
2022-08-14T22:52:38.370Z,22.73
2022-08-14T22:59:01.136Z,22.7
2022-08-14T23:05:38.687Z,22.68
2022-08-14T23:11:44.155Z,22.64
2022-08-14T23:18:04.152Z,22.63
2022-08-14T23:24:27.408Z,22.61
2022-08-14T23:30:49.086Z,22.62
2022-08-14T23:37:10.169Z,22.56
2022-08-14T23:43:31.235Z,22.5
2022-08-14T23:49:57.171Z,22.46
2022-08-14T23:56:13.190Z,22.39
